עמוד ראשי
METAR-TAF:

METAR-TAF

שדות תעופה :

Okayama, יפן

קו רוחב: 34-45N, קו אורך: 133-51E, גובה: 241מטר

תצפית מזג אוויר נוכחית

הדו"ח נערך לפני 1 שעות ו 6דקות, בשעה 12:00 UTC
רוח 4קשר מכיוון מזרח, משתנה בין צפון/צפון-מזרח ו מזרח/דרום-מזרח
טמפרטורת 26 צלסיוס
לחות 89%
לחץ 1013 hPa
ראות 10 קילומטר או יותר
מעט עננים בגובה 2000רגל
עננים בינוניים

METAR: RJOB 251200Z 08004KT 020V110 9999 FEW020 BKN/// 26/24 Q1013

זמן: 22:06 (13:06 UTC)

תחזית

הדו"ח נערך לפני 2 שעות ו 1דקות, בשעה 11:05 UTC
תחזית בתוקף מ 25 ב 12 UTC עד 26 ב 18 UTC
רוח 5קשר מכיוון צפון-מזרח
ראות 10 קילומטר או יותר
מעט עננים בגובה 2500רגל
יעשה מ
26 ב 00 UTC עד 26 ב 03 UTC
רוח 7קשר מכיוון דרום-מערב
יעשה מ
26 ב 12 UTC עד 26 ב 15 UTC
רוח 5קשר מכיוון מזרח

TAF: RJOB 251105Z 2512/2618 04005KT 9999 FEW025 BECMG 2600/2603 22007KT BECMG 2612/2615 08005KT

תצפיות ותחזיות מזג אוויר לגבי יותר מ- 4,000 שדות תעופה ברחבי העולם. דוחות METAR ו- TAF.

התחנות הזמינות מסומנות בנקודות צהובות ואדומות על גבי המפה.

העבר את העכבר לנקודה הצבעונית על מנת לראות את שם התחנה.

לאחר מכן, לחץ כדי לראות את תוכן ואת תחזיות מזג האוויר.

כדי לשנות את המפה: לחץ על הכפתורים הירוקים עם הפלוס השחור כדי להתקרב; על הכפתור הירוק עם המקף כדי להתרחק; או בחיצים הירוקים למפות סמוכות.


METAR-TAF: